Terminal Aerodrome Forecast
Issued by NWS Jacksonville, FL

Home | Current Version | Previous Version | Text Only | Print | Product List | Glossary On
Versions: 1 2 3 4 5 6 7 8 9 10 11 12 13 14 15 16 17 18
000
FTUS42 KJAX 280523
TAFJAX
TAF
KJAX 280523Z 2806/0106 VRB02KT 6SM BR BKN050
     FM280800 VRB02KT 2SM BR SCT003 BKN010
     FM281000 00000KT 1/2SM FG BKN003
     FM281130 00000KT 1/4SM FG VV002
     FM281330 VRB02KT 2SM BR BKN010
     FM281430 15007KT P6SM BKN035
     FM010400 16003KT 3SM BR SCT003 BKN010=

USA.gov is the U.S. government's official web portal to all federal, state and local government web resources and services.